Time;durP1;ratioP1;P1;durP2;ratioP2;P2;SDS_P1;SDS_P2;PMS_P1;PMS_P2;Temp;Humidity;BMP_temperature;BMP_pressure;BME280_temperature;BME280_humidity;BME280_pressure;Samples;Min_cycle;Max_cycle;Signal;HPM_P1;HPM_P2
2023/07/07 00:02:22;;;;;;;4.55;2.08;;;;;;;;;;4943016;29;20021;-84
2023/07/07 00:04:51;;;;;;;6.90;2.10;;;;;;;;;;4926323;29;20104;-84
2023/07/07 00:07:27;;;;;;;5.47;2.10;;;;;;;;;;4957733;28;20047;-84
2023/07/07 00:09:58;;;;;;;5.93;2.23;;;;;;;;;;4942558;29;20047;-84
2023/07/07 00:12:32;;;;;;;6.95;2.35;;;;;;;;;;5788499;23;20276;-84
2023/07/07 00:17:41;;;;;;;6.82;2.08;;;;;;;;;;4924848;29;20032;-85
2023/07/07 00:34:07;;;;;;;5.50;2.47;;;;;;;;;;5595121;23;20043;-84
2023/07/07 00:42:26;;;;;;;5.43;2.28;;;;;;;;;;5429928;23;20039;-84
2023/07/07 00:45:08;;;;;;;6.72;2.78;;;;;;;;;;5608921;23;20018;-84
2023/07/07 00:47:49;;;;;;;4.75;2.35;;;;;;;;;;4968086;28;20027;-84
2023/07/07 00:50:30;;;;;;;5.30;2.20;;;;;;;;;;4987969;28;20042;-83
2023/07/07 00:55:51;;;;;;;5.75;1.95;;;;;;;;;;5026554;23;20034;-82
2023/07/07 00:58:24;;;;;;;5.97;2.47;;;;;;;;;;4984649;28;20030;-82
2023/07/07 01:06:54;;;;;;;4.88;2.20;;;;;;;;;;5327576;23;19906;-82
2023/07/07 01:09:31;;;;;;;4.03;2.10;;;;;;;;;;4999755;28;20041;-86
2023/07/07 01:12:10;;;;;;;4.53;2.22;;;;;;;;;;5002730;28;20042;-86
2023/07/07 01:14:49;;;;;;;5.07;2.10;;;;;;;;;;4987816;28;20054;-83
2023/07/07 01:17:37;;;;;;;4.70;2.38;;;;;;;;;;5536161;23;20121;-85
2023/07/07 01:20:16;;;;;;;6.22;2.30;;;;;;;;;;5000165;28;20043;-85
2023/07/07 01:23:31;;;;;;;12.00;3.65;;;;;;;;;;5000781;28;20041;-83
2023/07/07 01:26:45;;;;;;;6.78;2.70;;;;;;;;;;5001361;28;20035;-84
2023/07/07 01:29:48;;;;;;;5.65;2.63;;;;;;;;;;4983495;28;20399;-83
2023/07/07 01:32:28;;;;;;;4.88;2.58;;;;;;;;;;4996482;28;20064;-83
2023/07/07 01:35:00;;;;;;;6.25;2.50;;;;;;;;;;4983267;28;20038;-84
2023/07/07 01:37:27;;;;;;;8.07;2.60;;;;;;;;;;4980084;28;20573;-83
2023/07/07 01:39:58;;;;;;;;;;;;;;;;;;4982947;28;20050;-84
2023/07/07 01:42:50;;;;;;;5.32;2.55;;;;;;;;;;4982843;28;19909;-84
2023/07/07 01:45:27;;;;;;;;;;;;;;;;;;4983330;28;20034;-82
2023/07/07 01:47:59;;;;;;;5.50;2.78;;;;;;;;;;5000590;28;19909;-81
2023/07/07 01:50:31;;;;;;;4.97;2.63;;;;;;;;;;4999960;28;20041;-82
2023/07/07 01:53:09;;;;;;;10.65;2.50;;;;;;;;;;4984361;28;20038;-85
2023/07/07 01:55:51;;;;;;;5.25;2.10;;;;;;;;;;4984667;28;20078;-83
2023/07/07 01:58:22;;;;;;;7.22;2.53;;;;;;;;;;4985682;28;20020;-85
2023/07/07 02:00:51;;;;;;;3.75;2.08;;;;;;;;;;5018167;28;20038;-85
2023/07/07 02:03:23;;;;;;;6.65;2.40;;;;;;;;;;5002585;28;20015;-86
2023/07/07 02:05:53;;;;;;;6.47;2.10;;;;;;;;;;5612872;23;20050;-83
2023/07/07 02:14:10;;;;;;;4.90;2.45;;;;;;;;;;4920601;29;20047;-83
2023/07/07 02:16:39;;;;;;;4.28;2.38;;;;;;;;;;4925294;29;20029;-83
2023/07/07 02:19:10;;;;;;;7.80;2.20;;;;;;;;;;4902373;29;20036;-84
2023/07/07 02:21:40;;;;;;;4.20;2.00;;;;;;;;;;4884184;29;20025;-88
2023/07/07 02:24:37;;;;;;;5.15;2.00;;;;;;;;;;4899408;29;20018;-84
2023/07/07 02:27:06;;;;;;;6.00;2.22;;;;;;;;;;4884337;29;20038;-84
2023/07/07 02:32:29;;;;;;;6.05;2.30;;;;;;;;;;5098084;23;20046;-85
2023/07/07 02:34:57;;;;;;;3.80;2.28;;;;;;;;;;4997777;28;20026;-84
2023/07/07 02:37:32;;;;;;;4.97;2.67;;;;;;;;;;4993994;28;20023;-84
2023/07/07 02:42:49;;;;;;;6.85;3.20;;;;;;;;;;5808359;23;19923;-83
2023/07/07 02:45:14;;;;;;;8.13;3.17;;;;;;;;;;5631099;23;20051;-83
2023/07/07 02:50:37;;;;;;;7.82;2.95;;;;;;;;;;5215120;23;20101;-86
2023/07/07 02:56:00;;;;;;;;;;;;;;;;;;;;;
2023/07/07 02:58:50;;;;;;;16.67;5.93;;;;;;;;;;4942778;29;20028;-85
2023/07/07 03:04:04;;;;;;;8.13;3.00;;;;;;;;;;4962341;28;20035;-84
2023/07/07 03:06:55;;;;;;;7.37;3.13;;;;;;;;;;6006656;23;20022;31
2023/07/07 03:18:12;;;;;;;9.93;3.88;;;;;;;;;;5160702;23;20102;-86
2023/07/07 03:20:47;;;;;;;6.78;3.20;;;;;;;;;;4995816;28;20030;-85
2023/07/07 03:23:51;;;;;;;11.52;3.42;;;;;;;;;;5092593;23;20048;31
2023/07/07 03:32:14;;;;;;;8.43;3.65;;;;;;;;;;6032536;23;20845;-85
2023/07/07 03:34:48;;;;;;;9.35;4.10;;;;;;;;;;5041768;23;20065;-86
2023/07/07 03:37:29;;;;;;;8.18;3.20;;;;;;;;;;4970336;28;20039;-85
2023/07/07 03:40:00;;;;;;;9.30;2.92;;;;;;;;;;4954209;28;20035;-86
2023/07/07 03:42:34;;;;;;;7.88;3.20;;;;;;;;;;4969241;28;20043;-85
2023/07/07 03:45:13;;;;;;;7.68;3.00;;;;;;;;;;4969831;28;20045;-85
2023/07/07 03:47:51;;;;;;;6.88;3.05;;;;;;;;;;4954176;28;20066;-84
2023/07/07 03:53:11;;;;;;;6.60;3.00;;;;;;;;;;5270625;23;20050;-86
2023/07/07 03:55:43;;;;;;;10.55;5.07;;;;;;;;;;5020861;28;20053;-85
2023/07/07 03:58:15;;;;;;;10.70;5.80;;;;;;;;;;4988609;28;20081;-85
2023/07/07 04:00:45;;;;;;;;;;;;;;;;;;4995295;28;20029;-86
2023/07/07 04:03:13;;;;;;;7.55;3.13;;;;;;;;;;4990550;28;19904;-86
2023/07/07 04:05:47;;;;;;;12.10;3.40;;;;;;;;;;5006477;28;20098;-86
2023/07/07 04:08:30;;;;;;;8.18;3.22;;;;;;;;;;5022947;28;20029;-86
2023/07/07 04:11:00;;;;;;;5.50;2.90;;;;;;;;;;5006683;28;20064;-85
2023/07/07 04:13:31;;;;;;;6.88;3.00;;;;;;;;;;5022938;28;20018;-85
2023/07/07 04:16:10;;;;;;;9.07;3.75;;;;;;;;;;4992689;28;20044;-85
2023/07/07 04:18:40;;;;;;;7.68;3.50;;;;;;;;;;5022129;28;20026;-85
2023/07/07 04:21:11;;;;;;;7.65;3.72;;;;;;;;;;5006334;28;20038;-84
2023/07/07 04:23:41;;;;;;;6.22;3.10;;;;;;;;;;5022676;28;20014;-83
2023/07/07 04:26:19;;;;;;;11.05;3.55;;;;;;;;;;5023177;28;20010;-84
2023/07/07 04:28:53;;;;;;;7.80;4.38;;;;;;;;;;4990264;28;20034;-83
2023/07/07 04:31:25;;;;;;;7.15;3.15;;;;;;;;;;5006059;28;20037;-83
2023/07/07 04:33:59;;;;;;;8.55;3.75;;;;;;;;;;5005169;28;20053;-83
2023/07/07 04:36:30;;;;;;;6.40;3.28;;;;;;;;;;4989357;28;20094;-83
2023/07/07 04:39:04;;;;;;;7.85;2.90;;;;;;;;;;5005736;28;20085;-83
2023/07/07 04:41:43;;;;;;;8.35;3.67;;;;;;;;;;5032921;28;20113;-83
2023/07/07 04:44:17;;;;;;;8.35;2.80;;;;;;;;;;4984456;28;20052;-84
2023/07/07 04:46:48;;;;;;;5.95;2.38;;;;;;;;;;4983247;28;20076;-83
2023/07/07 04:49:18;;;;;;;6.85;2.90;;;;;;;;;;5015633;28;20053;-83
2023/07/07 04:51:56;;;;;;;15.00;2.80;;;;;;;;;;4981382;28;20077;-84
2023/07/07 04:54:26;;;;;;;8.23;2.40;;;;;;;;;;4979963;28;20034;-82
2023/07/07 04:57:07;;;;;;;4.75;2.45;;;;;;;;;;4993739;28;20037;-84
2023/07/07 04:59:52;;;;;;;5.38;2.60;;;;;;;;;;4982020;28;20053;-84
2023/07/07 05:02:22;;;;;;;6.70;3.15;;;;;;;;;;5014240;28;20030;-86
2023/07/07 05:04:56;;;;;;;4.82;2.25;;;;;;;;;;5011609;28;20026;-84
2023/07/07 05:07:30;;;;;;;5.45;2.95;;;;;;;;;;4980634;28;20077;-84
2023/07/07 05:10:26;;;;;;;7.45;2.58;;;;;;;;;;4992352;28;20014;-84
2023/07/07 05:12:56;;;;;;;13.50;3.42;;;;;;;;;;5003631;28;20052;-86
2023/07/07 05:15:23;;;;;;;6.88;2.80;;;;;;;;;;5003853;28;20018;-86
2023/07/07 05:17:55;;;;;;;5.57;2.50;;;;;;;;;;5003316;28;20061;-84
2023/07/07 05:20:24;;;;;;;6.22;2.78;;;;;;;;;;5002678;28;20030;-83
2023/07/07 05:22:57;;;;;;;7.07;2.63;;;;;;;;;;5004317;28;20025;-84
2023/07/07 05:25:29;;;;;;;5.50;2.58;;;;;;;;;;5019843;28;20024;-85
2023/07/07 05:28:02;;;;;;;7.05;2.85;;;;;;;;;;5002331;28;20027;-87
2023/07/07 05:30:29;;;;;;;8.15;3.10;;;;;;;;;;4986659;28;20064;-86
2023/07/07 05:32:55;;;;;;;8.43;2.85;;;;;;;;;;4987551;28;20049;-84
2023/07/07 05:35:24;;;;;;;5.03;2.20;;;;;;;;;;5004234;28;20048;-83
2023/07/07 05:37:56;;;;;;;7.10;3.25;;;;;;;;;;5004138;28;20044;-84
2023/07/07 05:40:32;;;;;;;7.85;3.80;;;;;;;;;;5020573;28;20037;-85
2023/07/07 05:43:05;;;;;;;5.78;2.75;;;;;;;;;;5004474;28;20044;-84
2023/07/07 05:45:34;;;;;;;7.00;3.13;;;;;;;;;;4985710;28;20034;-84
2023/07/07 05:48:08;;;;;;;4.97;2.38;;;;;;;;;;5003633;28;20033;-85
2023/07/07 05:53:43;;;;;;;3.65;2.20;;;;;;;;;;5003317;28;20042;-85
2023/07/07 05:56:18;;;;;;;6.45;2.50;;;;;;;;;;5002338;28;20140;-85
2023/07/07 05:59:02;;;;;;;7.57;2.08;;;;;;;;;;4986119;28;20144;-85
2023/07/07 06:01:44;;;;;;;;;;;;;;;;;;;;;
2023/07/07 06:04:45;;;;;;;9.70;2.22;;;;;;;;;;4979797;28;20090;-85
2023/07/07 06:07:18;;;;;;;5.15;2.30;;;;;;;;;;4983710;28;20040;-84
2023/07/07 06:09:58;;;;;;;7.03;2.80;;;;;;;;;;4984876;28;20042;-86
2023/07/07 06:12:49;;;;;;;5.93;2.30;;;;;;;;;;4983134;28;20047;-85
2023/07/07 06:15:20;;;;;;;4.60;1.90;;;;;;;;;;5005555;28;20026;-85
2023/07/07 06:17:54;;;;;;;4.43;2.42;;;;;;;;;;4990579;28;20110;-84
2023/07/07 06:20:38;;;;;;;6.63;2.10;;;;;;;;;;4976121;28;20025;-83
2023/07/07 06:23:17;;;;;;;4.20;2.13;;;;;;;;;;5005181;28;20037;-84
2023/07/07 06:26:00;;;;;;;4.97;1.92;;;;;;;;;;5242195;23;20631;-85
2023/07/07 06:28:33;;;;;;;6.53;2.22;;;;;;;;;;4988668;28;20040;-84
2023/07/07 06:31:07;;;;;;;4.65;1.75;;;;;;;;;;5005617;23;20046;-85
2023/07/07 06:33:42;;;;;;;5.82;2.30;;;;;;;;;;4969325;28;20098;-85
2023/07/07 06:36:26;;;;;;;5.65;2.47;;;;;;;;;;4975214;23;20049;-83
2023/07/07 06:39:06;;;;;;;5.90;2.38;;;;;;;;;;4982144;28;20015;-85
2023/07/07 06:41:40;;;;;;;4.82;2.00;;;;;;;;;;4972610;28;20031;-86
2023/07/07 06:44:19;;;;;;;3.78;2.00;;;;;;;;;;4962158;28;20136;-84
2023/07/07 06:47:00;;;;;;;6.03;2.78;;;;;;;;;;4977146;29;20075;-84
2023/07/07 06:49:35;;;;;;;4.90;3.08;;;;;;;;;;4930858;29;20019;-83
2023/07/07 06:52:15;;;;;;;4.10;2.20;;;;;;;;;;4961870;28;20127;-83
2023/07/07 06:54:48;;;;;;;5.30;2.15;;;;;;;;;;4961643;28;20048;-84
2023/07/07 06:57:37;;;;;;;4.38;1.73;;;;;;;;;;4946821;29;20027;-84
2023/07/07 07:00:18;;;;;;;7.85;2.10;;;;;;;;;;4930256;29;20106;-84
2023/07/07 07:02:50;;;;;;;8.20;2.28;;;;;;;;;;4959810;29;20028;-82
2023/07/07 07:05:36;;;;;;;6.65;2.45;;;;;;;;;;4960102;29;20035;-83
2023/07/07 07:08:09;;;;;;;;;;;;;;;;;;4944431;29;20036;-83
2023/07/07 07:11:05;;;;;;;4.05;2.10;;;;;;;;;;4949300;29;19918;-82
2023/07/07 07:14:03;;;;;;;6.72;1.90;;;;;;;;;;4955650;29;20035;-81
2023/07/07 07:16:30;;;;;;;4.35;2.28;;;;;;;;;;4924167;29;20100;-81
2023/07/07 07:19:02;;;;;;;7.97;2.53;;;;;;;;;;4955806;29;20023;-83
2023/07/07 07:21:39;;;;;;;5.45;1.98;;;;;;;;;;4956680;29;20125;-82
2023/07/07 07:24:17;;;;;;;;;;;;;;;;;;;;;
2023/07/07 07:27:05;;;;;;;4.32;1.95;;;;;;;;;;4954027;29;19921;-82
2023/07/07 07:29:41;;;;;;;3.60;1.83;;;;;;;;;;4953525;29;20040;-83
2023/07/07 07:32:24;;;;;;;5.57;2.05;;;;;;;;;;4947647;29;20030;-82
2023/07/07 07:34:58;;;;;;;5.75;1.98;;;;;;;;;;4977639;28;20031;-83
2023/07/07 07:37:29;;;;;;;3.70;1.90;;;;;;;;;;4977260;28;20115;-84
2023/07/07 07:40:05;;;;;;;4.07;2.05;;;;;;;;;;4960410;28;20020;-84
2023/07/07 07:42:36;;;;;;;4.72;1.85;;;;;;;;;;4961935;28;20036;-82
2023/07/07 07:45:02;;;;;;;8.90;2.28;;;;;;;;;;4961094;28;20031;-82
2023/07/07 07:47:31;;;;;;;4.00;2.00;;;;;;;;;;4961330;28;20048;-84
2023/07/07 07:50:08;;;;;;;4.35;2.00;;;;;;;;;;4945671;29;20034;-84
2023/07/07 07:52:57;;;;;;;6.55;2.42;;;;;;;;;;5789036;23;20038;-82
2023/07/07 08:01:00;;;;;;;10.40;2.05;;;;;;;;;;4979144;28;20047;-83
2023/07/07 08:03:29;;;;;;;4.22;1.70;;;;;;;;;;4947813;29;20027;-84
2023/07/07 08:09:18;;;;;;;;;;;;;;;;;;4924387;29;19917;-83
2023/07/07 08:11:50;;;;;;;6.93;1.90;;;;;;;;;;4910494;29;19974;-85
2023/07/07 08:14:30;;;;;;;7.20;2.22;;;;;;;;;;4910733;29;20028;-84
2023/07/07 08:17:02;;;;;;;5.15;1.90;;;;;;;;;;4941407;29;20028;-84
2023/07/07 08:19:34;;;;;;;6.95;2.35;;;;;;;;;;4941536;29;20027;-85
2023/07/07 08:22:03;;;;;;;4.25;1.73;;;;;;;;;;5395294;23;20043;-85
2023/07/07 08:24:36;;;;;;;9.43;1.95;;;;;;;;;;4998988;28;20027;-85
2023/07/07 08:27:18;;;;;;;6.90;1.90;;;;;;;;;;4951075;28;20119;-84
2023/07/07 08:29:47;;;;;;;;;;;;;;;;;;4963509;28;20039;-84
2023/07/07 08:32:18;;;;;;;8.25;2.13;;;;;;;;;;4961498;29;19899;-84
2023/07/07 08:34:54;;;;;;;;;;;;;;;;;;4949429;28;20108;-84
2023/07/07 08:37:25;;;;;;;6.20;1.88;;;;;;;;;;5003084;23;19966;-85
2023/07/07 08:40:00;;;;;;;4.65;1.77;;;;;;;;;;4984740;23;20065;-84
2023/07/07 08:42:42;;;;;;;7.40;2.00;;;;;;;;;;4967267;28;20057;-83
2023/07/07 08:45:27;;;;;;;4.47;1.90;;;;;;;;;;4952583;28;20043;-85
2023/07/07 08:47:59;;;;;;;4.65;2.65;;;;;;;;;;5018913;23;20054;-85
2023/07/07 08:50:49;;;;;;;4.38;1.90;;;;;;;;;;5318489;23;20168;-84
2023/07/07 08:53:36;;;;;;;5.78;2.00;;;;;;;;;;4966410;28;20030;-83
2023/07/07 08:56:02;;;;;;;2.83;1.50;;;;;;;;;;4983033;28;20050;-85
2023/07/07 09:01:37;;;;;;;;;;;;;;;;;;5239357;23;20030;-84
2023/07/07 09:04:06;;;;;;;;;;;;;;;;;;4969864;28;19905;-85
2023/07/07 09:07:12;;;;;;;4.72;1.80;;;;;;;;;;5000897;28;19917;-86
2023/07/07 09:09:51;;;;;;;;;;;;;;;;;;4969394;28;20026;-85
2023/07/07 09:15:23;;;;;;;6.07;1.92;;;;;;;;;;5912992;23;20087;-84
2023/07/07 09:18:15;;;;;;;5.50;1.80;;;;;;;;;;4986485;28;20086;-84
2023/07/07 09:23:48;;;;;;;4.70;1.70;;;;;;;;;;5387628;23;20118;-83
2023/07/07 09:26:24;;;;;;;3.47;1.60;;;;;;;;;;4959732;28;20589;-83
2023/07/07 09:28:54;;;;;;;5.68;1.90;;;;;;;;;;4957143;28;20051;-82
2023/07/07 09:31:34;;;;;;;9.73;2.33;;;;;;;;;;4977595;28;20058;-82
2023/07/07 09:34:17;;;;;;;7.38;1.83;;;;;;;;;;4975776;29;20031;-85
2023/07/07 09:37:10;;;;;;;5.10;1.90;;;;;;;;;;4944456;29;20027;-84
2023/07/07 09:39:46;;;;;;;4.32;1.73;;;;;;;;;;4958167;29;20027;-82
2023/07/07 09:42:42;;;;;;;;;;;;;;;;;;;;;
2023/07/07 09:45:35;;;;;;;4.53;1.85;;;;;;;;;;4945393;29;20103;-82
2023/07/07 09:48:22;;;;;;;5.20;2.22;;;;;;;;;;4936844;29;20047;-84
2023/07/07 09:51:09;;;;;;;6.03;2.50;;;;;;;;;;4940055;29;20031;-83
2023/07/07 09:53:55;;;;;;;5.18;2.30;;;;;;;;;;4927201;29;20040;-84
2023/07/07 09:56:28;;;;;;;3.67;1.65;;;;;;;;;;4941274;29;20043;-82
2023/07/07 09:59:07;;;;;;;6.38;1.90;;;;;;;;;;5071137;23;20111;-84
2023/07/07 10:01:40;;;;;;;3.40;1.70;;;;;;;;;;4926030;29;20016;-84
2023/07/07 10:04:31;;;;;;;6.07;1.90;;;;;;;;;;4928058;28;20011;-85
2023/07/07 10:21:05;;;;;;;3.63;2.10;;;;;;;;;;5022851;23;20059;-84
2023/07/07 10:23:42;;;;;;;3.83;2.10;;;;;;;;;;4942194;28;20051;-85
2023/07/07 10:26:22;;;;;;;5.15;2.70;;;;;;;;;;4910766;29;20102;-84
2023/07/07 10:28:48;;;;;;;5.85;2.22;;;;;;;;;;4911948;29;20047;-85
2023/07/07 10:31:19;;;;;;;4.63;2.03;;;;;;;;;;4936974;29;20034;-85
2023/07/07 10:33:53;;;;;;;5.85;2.20;;;;;;;;;;4892723;29;20025;-85
2023/07/07 10:36:24;;;;;;;4.07;2.30;;;;;;;;;;4883901;29;20048;-83
2023/07/07 10:38:53;;;;;;;5.40;2.22;;;;;;;;;;4883631;29;20032;-83
2023/07/07 10:41:19;;;;;;;5.00;1.98;;;;;;;;;;4898068;29;20124;-81
2023/07/07 10:43:45;;;;;;;6.53;1.83;;;;;;;;;;4890385;29;20068;-83
2023/07/07 10:46:11;;;;;;;5.57;1.60;;;;;;;;;;4908462;29;20036;-81
2023/07/07 10:48:39;;;;;;;3.08;1.70;;;;;;;;;;4932476;29;20027;-83
2023/07/07 10:51:18;;;;;;;7.97;1.90;;;;;;;;;;4891422;29;20032;-81
2023/07/07 10:53:57;;;;;;;4.68;1.98;;;;;;;;;;4907850;29;20072;-83
2023/07/07 10:56:26;;;;;;;3.17;1.60;;;;;;;;;;4898065;29;20072;-84
2023/07/07 10:58:59;;;;;;;3.63;1.80;;;;;;;;;;4899788;29;20039;-82
2023/07/07 11:01:24;;;;;;;3.35;1.67;;;;;;;;;;4901354;29;20099;-83
2023/07/07 11:03:50;;;;;;;5.35;1.63;;;;;;;;;;4901682;29;20316;-82
2023/07/07 11:06:23;;;;;;;4.47;1.95;;;;;;;;;;4916690;29;20032;-83
2023/07/07 11:08:51;;;;;;;4.88;1.70;;;;;;;;;;4920632;29;20043;-83
2023/07/07 11:11:35;;;;;;;4.78;1.75;;;;;;;;;;4905020;29;20066;-83
2023/07/07 11:14:19;;;;;;;4.25;1.70;;;;;;;;;;4921340;29;20091;-84
2023/07/07 11:17:01;;;;;;;5.82;2.08;;;;;;;;;;4905006;29;20040;-84
2023/07/07 11:19:48;;;;;;;5.57;2.10;;;;;;;;;;4933921;23;20093;-78
2023/07/07 11:22:29;;;;;;;3.90;1.70;;;;;;;;;;4899347;29;20044;-79
2023/07/07 11:25:15;;;;;;;6.05;2.13;;;;;;;;;;4901007;29;20103;-78
2023/07/07 11:27:41;;;;;;;5.88;1.88;;;;;;;;;;4913758;29;20365;-80
2023/07/07 11:30:09;;;;;;;4.85;2.28;;;;;;;;;;4917888;29;20470;-79
2023/07/07 11:32:45;;;;;;;5.30;2.20;;;;;;;;;;4934499;29;20094;-79
2023/07/07 11:35:18;;;;;;;5.25;2.00;;;;;;;;;;4904377;29;20118;-79
2023/07/07 11:37:53;;;;;;;7.00;1.80;;;;;;;;;;4904082;29;20400;-79
2023/07/07 11:40:25;;;;;;;6.32;1.77;;;;;;;;;;4919760;29;20031;-79
2023/07/07 11:43:00;;;;;;;6.25;2.15;;;;;;;;;;4919670;29;20099;-79
2023/07/07 11:45:34;;;;;;;5.65;1.85;;;;;;;;;;4937326;29;20089;-81
2023/07/07 11:48:18;;;;;;;5.35;2.20;;;;;;;;;;4889088;29;20051;-79
2023/07/07 11:50:51;;;;;;;4.72;1.80;;;;;;;;;;4935612;29;20476;-78
2023/07/07 11:53:23;;;;;;;5.22;2.17;;;;;;;;;;4936899;29;20464;-78
2023/07/07 11:55:49;;;;;;;4.75;1.90;;;;;;;;;;4919398;29;20036;-77
2023/07/07 11:58:25;;;;;;;3.00;1.77;;;;;;;;;;4903749;29;20039;-79
2023/07/07 12:01:13;;;;;;;6.90;2.50;;;;;;;;;;4914002;29;20087;-77
2023/07/07 12:04:06;;;;;;;9.70;1.98;;;;;;;;;;4901992;29;20036;-79
2023/07/07 12:06:45;;;;;;;4.15;2.00;;;;;;;;;;4915225;29;20043;-79
2023/07/07 12:09:18;;;;;;;3.42;1.70;;;;;;;;;;4886008;29;20114;-77
2023/07/07 12:11:59;;;;;;;6.07;1.83;;;;;;;;;;4899024;29;20032;-78
2023/07/07 12:14:29;;;;;;;6.20;2.35;;;;;;;;;;4900197;29;20024;-79
2023/07/07 12:16:57;;;;;;;5.63;2.15;;;;;;;;;;4884899;29;20028;-77
2023/07/07 12:19:26;;;;;;;5.53;1.88;;;;;;;;;;4930661;29;20502;-77
2023/07/07 12:21:53;;;;;;;3.78;1.88;;;;;;;;;;4904478;29;20035;-77
2023/07/07 12:24:25;;;;;;;3.67;1.70;;;;;;;;;;4915982;29;20030;-77
2023/07/07 12:27:08;;;;;;;6.22;1.83;;;;;;;;;;4935658;29;20274;-78
2023/07/07 12:29:39;;;;;;;4.30;2.10;;;;;;;;;;4935419;29;20057;-79
2023/07/07 12:32:07;;;;;;;4.47;1.95;;;;;;;;;;4936224;29;20141;-78
2023/07/07 12:34:36;;;;;;;2.78;1.42;;;;;;;;;;4919516;29;20034;-77
2023/07/07 12:37:10;;;;;;;6.35;1.90;;;;;;;;;;4903651;29;20086;-80
2023/07/07 12:39:36;;;;;;;4.40;1.88;;;;;;;;;;4918882;29;20107;-78
2023/07/07 12:42:04;;;;;;;3.65;1.75;;;;;;;;;;4933413;29;20067;-78
2023/07/07 12:44:31;;;;;;;5.47;1.77;;;;;;;;;;4934525;29;20130;-79
2023/07/07 12:46:58;;;;;;;3.40;1.83;;;;;;;;;;4935377;29;20042;-79
2023/07/07 12:49:25;;;;;;;4.43;1.80;;;;;;;;;;4888942;29;20071;-77
2023/07/07 12:51:56;;;;;;;7.63;1.80;;;;;;;;;;4934682;29;20035;-79
2023/07/07 12:54:29;;;;;;;17.73;2.38;;;;;;;;;;4933868;29;20038;-78
2023/07/07 12:57:03;;;;;;;6.10;2.20;;;;;;;;;;4918480;29;20076;-78
2023/07/07 12:59:36;;;;;;;4.47;2.42;;;;;;;;;;4934141;29;20022;-79
2023/07/07 13:02:09;;;;;;;3.45;1.77;;;;;;;;;;4934883;29;20044;-78
2023/07/07 13:04:38;;;;;;;4.43;2.03;;;;;;;;;;4933920;29;20028;-78
2023/07/07 13:07:05;;;;;;;3.63;1.90;;;;;;;;;;4902257;29;20039;-79
2023/07/07 13:09:47;;;;;;;11.13;2.00;;;;;;;;;;4917727;29;20484;-79
2023/07/07 13:12:46;;;;;;;4.15;1.95;;;;;;;;;;4916879;29;20480;-77
2023/07/07 13:15:17;;;;;;;3.15;1.83;;;;;;;;;;4901781;29;20051;-79
2023/07/07 13:17:44;;;;;;;4.18;1.67;;;;;;;;;;4927865;29;20094;-78
2023/07/07 13:20:12;;;;;;;3.35;1.85;;;;;;;;;;4934444;29;20078;-78
2023/07/07 13:22:40;;;;;;;4.05;1.80;;;;;;;;;;4918169;29;20503;-78
2023/07/07 13:25:07;;;;;;;4.18;1.60;;;;;;;;;;4915577;29;20078;-78
2023/07/07 13:27:33;;;;;;;5.60;2.00;;;;;;;;;;4899019;29;20043;-79
2023/07/07 13:30:19;;;;;;;3.75;1.80;;;;;;;;;;4898665;29;20036;-79
2023/07/07 13:32:45;;;;;;;4.15;2.10;;;;;;;;;;4882236;29;20044;-77
2023/07/07 13:35:10;;;;;;;4.18;2.10;;;;;;;;;;4912431;29;20038;-77
2023/07/07 13:37:36;;;;;;;5.30;1.90;;;;;;;;;;4898656;29;20480;-78
2023/07/07 13:40:03;;;;;;;4.60;1.90;;;;;;;;;;4906632;29;20082;-78
2023/07/07 13:42:30;;;;;;;3.75;1.85;;;;;;;;;;4913954;29;20457;-79
2023/07/07 13:45:00;;;;;;;3.25;1.80;;;;;;;;;;4914320;29;20182;-78
2023/07/07 13:47:27;;;;;;;5.90;1.80;;;;;;;;;;4914185;29;20059;-78
2023/07/07 13:49:53;;;;;;;4.97;1.60;;;;;;;;;;4898383;29;20159;-79
2023/07/07 13:52:21;;;;;;;4.45;2.00;;;;;;;;;;4900675;29;20126;-79
2023/07/07 13:54:50;;;;;;;5.22;1.80;;;;;;;;;;4902863;29;20040;-78
2023/07/07 13:57:20;;;;;;;5.55;1.83;;;;;;;;;;4901597;29;20099;-77
2023/07/07 13:59:47;;;;;;;3.90;1.80;;;;;;;;;;4914630;29;20079;-77
2023/07/07 14:02:14;;;;;;;6.78;2.03;;;;;;;;;;4934092;29;20149;-78
2023/07/07 14:04:43;;;;;;;5.77;1.87;;;;;;;;;;4901903;29;20043;-80
2023/07/07 14:07:16;;;;;;;4.93;2.15;;;;;;;;;;4901698;29;20307;-76
2023/07/07 14:09:44;;;;;;;3.78;1.90;;;;;;;;;;4917619;29;20054;-77
2023/07/07 14:12:11;;;;;;;5.70;2.03;;;;;;;;;;4917241;29;20107;-79
2023/07/07 14:14:38;;;;;;;7.80;2.15;;;;;;;;;;4917276;29;20073;-76
2023/07/07 14:17:15;;;;;;;3.53;1.88;;;;;;;;;;4896100;29;20403;-76
2023/07/07 14:19:51;;;;;;;5.63;2.20;;;;;;;;;;4901398;29;20117;-79
2023/07/07 14:22:17;;;;;;;5.78;2.20;;;;;;;;;;4901068;29;20035;-76
2023/07/07 14:24:43;;;;;;;3.40;1.92;;;;;;;;;;4901314;29;20031;-77
2023/07/07 14:27:13;;;;;;;9.55;2.05;;;;;;;;;;4932702;29;20042;-78
2023/07/07 14:29:39;;;;;;;6.57;2.53;;;;;;;;;;4932532;29;20097;-78
2023/07/07 14:32:06;;;;;;;3.08;1.90;;;;;;;;;;4929703;29;20142;-77
2023/07/07 14:34:46;;;;;;;8.88;2.00;;;;;;;;;;4918897;29;20031;-78
2023/07/07 14:37:20;;;;;;;3.90;2.00;;;;;;;;;;4920776;29;20036;-78
2023/07/07 14:39:49;;;;;;;5.18;1.85;;;;;;;;;;4928502;29;20099;-77
2023/07/07 14:42:20;;;;;;;4.18;1.90;;;;;;;;;;4905814;29;20027;-78
2023/07/07 14:44:48;;;;;;;7.22;1.95;;;;;;;;;;4899916;29;20067;-78
2023/07/07 14:47:13;;;;;;;;;;;;;;;;;;4902220;29;20127;-77
2023/07/07 14:49:40;;;;;;;5.53;2.25;;;;;;;;;;4901500;29;20029;-76
2023/07/07 14:52:14;;;;;;;4.63;1.92;;;;;;;;;;4901845;29;20368;-79
2023/07/07 14:54:41;;;;;;;8.50;2.00;;;;;;;;;;4886216;29;20063;-78
2023/07/07 14:57:15;;;;;;;4.85;1.95;;;;;;;;;;4901721;29;20040;-78
2023/07/07 14:59:41;;;;;;;4.95;2.35;;;;;;;;;;4904844;29;20032;-77
2023/07/07 15:02:13;;;;;;;4.22;2.00;;;;;;;;;;4919792;29;20046;-78
2023/07/07 15:04:39;;;;;;;5.00;2.22;;;;;;;;;;4920283;29;20074;-77
2023/07/07 15:07:12;;;;;;;3.78;2.00;;;;;;;;;;4920156;29;20492;-78
2023/07/07 15:09:37;;;;;;;3.78;1.90;;;;;;;;;;4936885;29;20060;-76
2023/07/07 15:12:03;;;;;;;8.10;1.85;;;;;;;;;;4935451;29;20459;-76
2023/07/07 15:14:29;;;;;;;5.07;2.50;;;;;;;;;;4935806;29;20236;-76
2023/07/07 15:16:55;;;;;;;5.03;2.20;;;;;;;;;;4936955;29;20348;-77
2023/07/07 15:19:22;;;;;;;4.45;2.10;;;;;;;;;;4903972;29;20078;-78
2023/07/07 15:21:48;;;;;;;4.50;2.33;;;;;;;;;;4919464;29;20444;-77
2023/07/07 15:24:14;;;;;;;3.83;2.00;;;;;;;;;;4919571;29;20499;-78
2023/07/07 15:26:53;;;;;;;4.20;2.00;;;;;;;;;;4905852;29;20032;-78
2023/07/07 15:29:19;;;;;;;4.00;2.10;;;;;;;;;;4919827;29;20043;-77
2023/07/07 15:31:47;;;;;;;4.63;2.03;;;;;;;;;;4920186;29;20028;-78
2023/07/07 15:34:34;;;;;;;5.60;2.13;;;;;;;;;;4906178;29;20440;-76
2023/07/07 15:37:00;;;;;;;4.50;2.25;;;;;;;;;;4938384;29;20047;-79
2023/07/07 15:39:26;;;;;;;5.82;1.98;;;;;;;;;;4908536;29;20050;-76
2023/07/07 15:41:51;;;;;;;4.40;2.10;;;;;;;;;;4919987;29;20111;-78
2023/07/07 15:44:17;;;;;;;3.80;1.70;;;;;;;;;;4920019;29;20063;-78
2023/07/07 15:46:43;;;;;;;5.90;2.33;;;;;;;;;;4904104;29;20406;-78
2023/07/07 15:49:18;;;;;;;3.13;2.03;;;;;;;;;;4919836;29;20391;-79
2023/07/07 15:51:45;;;;;;;5.05;2.40;;;;;;;;;;4919281;29;20356;-76
2023/07/07 15:54:11;;;;;;;4.72;2.63;;;;;;;;;;4916209;29;20535;-78
2023/07/07 15:56:39;;;;;;;5.43;2.25;;;;;;;;;;4900231;29;20032;-78
2023/07/07 15:59:18;;;;;;;5.18;1.88;;;;;;;;;;4902504;29;20040;-76
2023/07/07 16:01:44;;;;;;;4.65;2.10;;;;;;;;;;4900065;29;20032;-78
2023/07/07 16:04:13;;;;;;;6.72;2.58;;;;;;;;;;4904223;29;20039;-78
2023/07/07 16:06:39;;;;;;;4.35;2.17;;;;;;;;;;4903538;29;20066;-78
2023/07/07 16:09:11;;;;;;;6.50;2.13;;;;;;;;;;4915826;29;20040;-77
2023/07/07 16:11:37;;;;;;;10.63;2.17;;;;;;;;;;4936305;29;20355;-77
2023/07/07 16:14:02;;;;;;;4.38;2.25;;;;;;;;;;4935299;29;20711;-78
2023/07/07 16:16:28;;;;;;;5.93;2.22;;;;;;;;;;4927135;29;20028;-78
2023/07/07 16:18:57;;;;;;;4.25;1.85;;;;;;;;;;4919596;29;20028;-77
2023/07/07 16:21:24;;;;;;;4.70;1.70;;;;;;;;;;4919088;29;20039;-77
2023/07/07 16:23:50;;;;;;;4.25;1.85;;;;;;;;;;4904078;29;20035;-78
2023/07/07 16:26:22;;;;;;;6.82;2.20;;;;;;;;;;4901289;29;20040;-77
2023/07/07 16:28:48;;;;;;;3.55;1.67;;;;;;;;;;4917763;29;20043;-79
2023/07/07 16:31:14;;;;;;;5.82;1.92;;;;;;;;;;4900703;29;20039;-77
2023/07/07 16:33:40;;;;;;;4.72;1.58;;;;;;;;;;4913861;29;20043;-79
2023/07/07 16:36:17;;;;;;;7.32;2.38;;;;;;;;;;4919171;29;20032;-79
2023/07/07 16:38:44;;;;;;;3.42;1.80;;;;;;;;;;4936603;29;20028;-78
2023/07/07 16:41:14;;;;;;;4.65;1.95;;;;;;;;;;4918566;29;20116;-78
2023/07/07 16:43:40;;;;;;;5.13;2.10;;;;;;;;;;4936770;29;20091;-78
2023/07/07 16:46:10;;;;;;;3.15;1.75;;;;;;;;;;4919278;29;20031;-78
2023/07/07 16:48:38;;;;;;;3.95;1.77;;;;;;;;;;4887122;29;20213;-77
2023/07/07 16:51:04;;;;;;;4.15;1.98;;;;;;;;;;4920717;29;20038;-79
2023/07/07 16:53:30;;;;;;;4.70;1.95;;;;;;;;;;4888512;29;20139;-78
2023/07/07 16:55:59;;;;;;;6.80;1.75;;;;;;;;;;4903189;29;20510;-77
2023/07/07 16:58:25;;;;;;;4.25;1.90;;;;;;;;;;4902775;29;20064;-79
2023/07/07 17:00:51;;;;;;;6.45;2.08;;;;;;;;;;4903608;29;20082;-78
2023/07/07 17:03:17;;;;;;;3.30;1.80;;;;;;;;;;4904106;29;20456;-78
2023/07/07 17:05:42;;;;;;;3.80;1.80;;;;;;;;;;4898555;29;20032;-78
2023/07/07 17:08:11;;;;;;;5.03;1.95;;;;;;;;;;4936125;29;20376;-76
2023/07/07 17:10:40;;;;;;;6.50;2.30;;;;;;;;;;4918489;29;20411;-78
2023/07/07 17:13:05;;;;;;;3.17;1.55;;;;;;;;;;4887102;29;20107;-76
2023/07/07 17:15:31;;;;;;;4.35;1.70;;;;;;;;;;4935228;29;20041;-78